Time;durP1;ratioP1;P1;durP2;ratioP2;P2;SDS_P1;SDS_P2;PMS_P1;PMS_P2;Temp;Humidity;BMP_temperature;BMP_pressure;BME280_temperature;BME280_humidity;BME280_pressure;Samples;Min_cycle;Max_cycle;Signal;HPM_P1;HPM_P2
2023/09/03 00:05:49;;;;;;;8.20;7.32;;;;;;;;;;5032855;28;20099;-61
2023/09/03 00:08:14;;;;;;;8.27;7.05;;;;;;;;;;5027538;23;20046;-68
2023/09/03 00:10:39;;;;;;;8.93;7.30;;;;;;;;;;4988771;28;20046;-63
2023/09/03 00:13:05;;;;;;;8.67;7.17;;;;;;;;;;4996061;28;20380;-62
2023/09/03 00:15:30;;;;;;;9.90;7.50;;;;;;;;;;4980335;28;20280;-63
2023/09/03 00:17:55;;;;;;;9.27;7.50;;;;;;;;;;5025786;28;20330;-63
2023/09/03 00:20:20;;;;;;;8.53;7.00;;;;;;;;;;4971642;28;20385;-62
2023/09/03 00:25:13;;;;;;;8.60;7.18;;;;;;;;;;5003444;28;20347;-57
2023/09/03 00:27:38;;;;;;;8.00;6.95;;;;;;;;;;5005826;28;20049;-59
2023/09/03 00:30:04;;;;;;;9.50;6.77;;;;;;;;;;5005720;28;20030;-58
2023/09/03 00:32:29;;;;;;;8.40;6.97;;;;;;;;;;5005561;28;20812;-60
2023/09/03 00:34:54;;;;;;;9.53;7.27;;;;;;;;;;5003134;28;20030;-60
2023/09/03 00:37:19;;;;;;;10.40;6.73;;;;;;;;;;5005638;28;20068;-58
2023/09/03 00:39:44;;;;;;;11.73;7.00;;;;;;;;;;5014905;28;20276;-58
2023/09/03 00:42:10;;;;;;;9.87;7.63;;;;;;;;;;5000226;28;20298;-58
2023/09/03 00:44:35;;;;;;;10.23;8.18;;;;;;;;;;4983347;23;20297;-61
2023/09/03 00:47:00;;;;;;;9.63;7.30;;;;;;;;;;4949119;28;20038;-62
2023/09/03 00:49:25;;;;;;;8.77;7.10;;;;;;;;;;4969997;28;20301;-64
2023/09/03 00:51:52;;;;;;;8.60;7.30;;;;;;;;;;4986263;28;20296;-65
2023/09/03 00:54:17;;;;;;;8.32;7.00;;;;;;;;;;4998026;28;20042;-61
2023/09/03 00:56:42;;;;;;;11.33;7.70;;;;;;;;;;5002816;28;20416;-60
2023/09/03 00:59:08;;;;;;;8.90;6.90;;;;;;;;;;5003820;28;20516;-60
2023/09/03 01:01:33;;;;;;;9.18;7.05;;;;;;;;;;5004566;28;20428;-61
2023/09/03 01:03:58;;;;;;;10.30;7.67;;;;;;;;;;5001514;28;20042;-61
2023/09/03 01:06:25;;;;;;;9.57;7.45;;;;;;;;;;4985268;28;20048;-60
2023/09/03 01:08:50;;;;;;;8.77;7.55;;;;;;;;;;5004016;28;20036;-60
2023/09/03 01:11:20;;;;;;;9.30;7.35;;;;;;;;;;5002537;28;20045;-60
2023/09/03 01:13:46;;;;;;;;;;;;;;;;;;4985619;28;20042;-64
2023/09/03 01:16:34;;;;;;;9.68;6.85;;;;;;;;;;5002915;28;19928;-64
2023/09/03 01:19:00;;;;;;;11.27;7.55;;;;;;;;;;4997297;28;20117;-62
2023/09/03 01:21:46;;;;;;;9.48;7.53;;;;;;;;;;5003678;28;20097;-61
2023/09/03 01:24:38;;;;;;;10.68;7.72;;;;;;;;;;4985946;28;20530;-61
2023/09/03 01:27:16;;;;;;;11.13;7.45;;;;;;;;;;4986719;28;20495;-64
2023/09/03 01:29:42;;;;;;;10.05;7.45;;;;;;;;;;4966820;28;20124;-62
2023/09/03 01:32:07;;;;;;;9.70;7.80;;;;;;;;;;4984211;28;20540;-61
2023/09/03 01:34:32;;;;;;;10.13;7.23;;;;;;;;;;4981922;28;20029;-60
2023/09/03 01:36:57;;;;;;;10.87;7.73;;;;;;;;;;4985756;28;20356;-60
2023/09/03 01:39:23;;;;;;;11.93;7.47;;;;;;;;;;4984884;28;20367;-62
2023/09/03 01:41:48;;;;;;;8.43;7.20;;;;;;;;;;5018460;28;20036;-61
2023/09/03 01:44:13;;;;;;;10.98;7.60;;;;;;;;;;5003239;28;20042;-61
2023/09/03 01:46:48;;;;;;;10.47;7.23;;;;;;;;;;4985124;28;20053;-61
2023/09/03 01:49:16;;;;;;;9.77;7.43;;;;;;;;;;5002678;28;20455;-61
2023/09/03 01:51:47;;;;;;;11.30;7.68;;;;;;;;;;4969152;28;20057;-64
2023/09/03 01:54:15;;;;;;;9.55;7.70;;;;;;;;;;4986046;28;20108;-60
2023/09/03 01:56:42;;;;;;;9.80;7.22;;;;;;;;;;5001487;28;20068;-65
2023/09/03 01:59:11;;;;;;;8.90;6.88;;;;;;;;;;4985790;28;20173;-61
2023/09/03 02:01:37;;;;;;;11.30;7.73;;;;;;;;;;4969817;28;20056;-61
2023/09/03 02:04:02;;;;;;;11.27;7.38;;;;;;;;;;4986164;28;20614;-61
2023/09/03 02:06:27;;;;;;;9.95;7.85;;;;;;;;;;4985082;28;20034;-60
2023/09/03 02:08:52;;;;;;;9.48;7.72;;;;;;;;;;4985700;28;20045;-60
2023/09/03 02:11:18;;;;;;;11.40;7.23;;;;;;;;;;5007188;28;20077;-62
2023/09/03 02:13:43;;;;;;;8.67;7.53;;;;;;;;;;5007312;28;20871;-61
2023/09/03 02:16:08;;;;;;;8.60;7.03;;;;;;;;;;5005428;28;20679;-61
2023/09/03 02:18:33;;;;;;;9.63;7.70;;;;;;;;;;5001962;28;20297;-62
2023/09/03 02:20:58;;;;;;;9.48;7.72;;;;;;;;;;4988569;28;20375;-61
2023/09/03 02:23:24;;;;;;;10.17;7.87;;;;;;;;;;5007730;28;20038;-62
2023/09/03 02:25:58;;;;;;;9.47;7.40;;;;;;;;;;4994654;28;20319;-60
2023/09/03 02:28:23;;;;;;;9.38;6.95;;;;;;;;;;4989303;28;20697;-61
2023/09/03 02:30:49;;;;;;;9.77;7.40;;;;;;;;;;4989384;28;20060;-62
2023/09/03 02:33:14;;;;;;;10.40;7.67;;;;;;;;;;5002114;28;20722;-60
2023/09/03 02:35:39;;;;;;;9.97;7.53;;;;;;;;;;4999409;28;20288;-61
2023/09/03 02:38:04;;;;;;;11.00;7.13;;;;;;;;;;4988135;28;20276;-61
2023/09/03 02:40:30;;;;;;;9.90;7.63;;;;;;;;;;4988694;28;20863;-65
2023/09/03 02:42:56;;;;;;;9.05;7.32;;;;;;;;;;5006999;28;20296;-63
2023/09/03 02:45:22;;;;;;;8.95;6.63;;;;;;;;;;5005456;28;20120;-61
2023/09/03 02:47:47;;;;;;;10.32;7.55;;;;;;;;;;5005609;28;20594;-64
2023/09/03 02:50:12;;;;;;;9.32;7.18;;;;;;;;;;5005769;28;20061;-68
2023/09/03 02:52:37;;;;;;;9.45;7.20;;;;;;;;;;5005539;28;20497;-63
2023/09/03 02:55:03;;;;;;;8.73;7.20;;;;;;;;;;5006445;28;20113;-63
2023/09/03 02:57:28;;;;;;;7.47;6.32;;;;;;;;;;4988576;28;20758;-63
2023/09/03 02:59:53;;;;;;;8.47;6.33;;;;;;;;;;5005673;28;20496;-63
2023/09/03 03:02:18;;;;;;;8.90;6.80;;;;;;;;;;4988930;28;20636;-64
2023/09/03 03:04:44;;;;;;;9.77;6.80;;;;;;;;;;4988554;28;20277;-63
2023/09/03 03:07:09;;;;;;;9.00;6.60;;;;;;;;;;4987743;28;20277;-64
2023/09/03 03:09:34;;;;;;;8.57;6.80;;;;;;;;;;5004624;28;20312;-63
2023/09/03 03:11:59;;;;;;;9.10;7.00;;;;;;;;;;4988229;28;20119;-63
2023/09/03 03:14:25;;;;;;;7.77;6.43;;;;;;;;;;4987264;28;20782;-64
2023/09/03 03:16:50;;;;;;;9.63;6.33;;;;;;;;;;4971404;28;20292;-65
2023/09/03 03:19:15;;;;;;;8.63;6.47;;;;;;;;;;5001189;28;20282;-63
2023/09/03 03:21:40;;;;;;;9.68;7.05;;;;;;;;;;5001989;28;20277;-63
2023/09/03 03:24:06;;;;;;;8.00;6.10;;;;;;;;;;5001836;28;20191;-64
2023/09/03 03:26:32;;;;;;;10.52;7.15;;;;;;;;;;5004257;28;20291;-64
2023/09/03 03:28:58;;;;;;;10.98;6.72;;;;;;;;;;4971761;28;20133;-65
2023/09/03 03:31:23;;;;;;;8.98;6.38;;;;;;;;;;4984794;28;20117;-64
2023/09/03 03:33:49;;;;;;;10.32;6.78;;;;;;;;;;5007113;28;20030;-62
2023/09/03 03:36:19;;;;;;;8.45;6.90;;;;;;;;;;4999060;28;20034;-64
2023/09/03 03:38:44;;;;;;;;;;;;;;;;;;5004092;28;20044;-62
2023/09/03 03:41:10;;;;;;;7.63;5.90;;;;;;;;;;5005099;28;20016;-68
2023/09/03 03:43:36;;;;;;;9.98;7.10;;;;;;;;;;5004473;28;20136;-63
2023/09/03 03:46:01;;;;;;;8.98;7.25;;;;;;;;;;4981085;28;20313;-67
2023/09/03 03:48:26;;;;;;;7.50;6.53;;;;;;;;;;5010178;28;20045;-67
2023/09/03 03:50:54;;;;;;;8.40;6.80;;;;;;;;;;5005769;28;20363;-63
2023/09/03 03:53:20;;;;;;;8.52;6.30;;;;;;;;;;4972113;28;20733;-62
2023/09/03 03:55:45;;;;;;;8.63;6.30;;;;;;;;;;4987819;28;20041;-64
2023/09/03 03:58:10;;;;;;;8.87;7.03;;;;;;;;;;5003627;28;20343;-64
2023/09/03 04:00:35;;;;;;;8.70;6.57;;;;;;;;;;5005410;28;20292;-63
2023/09/03 04:03:01;;;;;;;9.30;6.73;;;;;;;;;;4987111;28;20425;-66
2023/09/03 04:05:26;;;;;;;8.67;6.50;;;;;;;;;;5004396;28;20289;-65
2023/09/03 04:07:52;;;;;;;8.98;7.07;;;;;;;;;;5004690;28;20273;-65
2023/09/03 04:10:17;;;;;;;8.48;6.55;;;;;;;;;;5004525;28;20117;-63
2023/09/03 04:12:42;;;;;;;7.75;6.55;;;;;;;;;;5003719;28;20014;-63
2023/09/03 04:15:08;;;;;;;8.13;6.47;;;;;;;;;;4987604;28;20143;-63
2023/09/03 04:17:33;;;;;;;8.52;7.05;;;;;;;;;;4993018;28;20268;-63
2023/09/03 04:19:58;;;;;;;8.90;7.23;;;;;;;;;;5006648;28;20025;-63
2023/09/03 04:22:24;;;;;;;8.43;6.97;;;;;;;;;;5007075;28;20252;-62
2023/09/03 04:24:49;;;;;;;10.10;6.97;;;;;;;;;;5007179;28;20022;-68
2023/09/03 04:27:14;;;;;;;9.33;6.83;;;;;;;;;;4971805;28;20363;-64
2023/09/03 04:29:39;;;;;;;8.50;6.63;;;;;;;;;;4971731;28;20363;-63
2023/09/03 04:32:05;;;;;;;8.90;7.07;;;;;;;;;;4984890;28;20264;-62
2023/09/03 04:34:30;;;;;;;9.15;6.78;;;;;;;;;;4985929;28;20380;-65
2023/09/03 04:36:55;;;;;;;8.57;7.00;;;;;;;;;;4977494;28;20049;-63
2023/09/03 04:39:20;;;;;;;11.93;7.87;;;;;;;;;;5015745;28;20277;-63
2023/09/03 04:41:46;;;;;;;8.00;6.73;;;;;;;;;;5004542;28;20026;-65
2023/09/03 04:44:12;;;;;;;8.20;7.00;;;;;;;;;;4969538;28;20281;-63
2023/09/03 04:46:37;;;;;;;9.98;7.45;;;;;;;;;;4986542;28;20265;-63
2023/09/03 04:49:03;;;;;;;8.43;6.68;;;;;;;;;;5018614;28;20021;-65
2023/09/03 04:51:28;;;;;;;8.80;6.90;;;;;;;;;;4990999;28;20075;-63
2023/09/03 04:53:54;;;;;;;7.88;6.50;;;;;;;;;;5006565;28;20622;-64
2023/09/03 04:56:19;;;;;;;8.57;6.70;;;;;;;;;;5017617;28;20021;-63
2023/09/03 04:58:44;;;;;;;10.13;7.30;;;;;;;;;;4994246;28;20026;-63
2023/09/03 05:01:16;;;;;;;8.30;7.25;;;;;;;;;;4986089;28;20273;-63
2023/09/03 05:03:41;;;;;;;9.82;6.50;;;;;;;;;;5004536;28;20365;-65
2023/09/03 05:06:06;;;;;;;9.53;6.80;;;;;;;;;;5003789;28;20084;-65
2023/09/03 05:08:31;;;;;;;9.00;7.47;;;;;;;;;;4984807;28;20302;-63
2023/09/03 05:10:57;;;;;;;8.70;7.20;;;;;;;;;;5019099;28;20348;-65
2023/09/03 05:13:22;;;;;;;9.97;7.60;;;;;;;;;;5004404;28;20293;-65
2023/09/03 05:15:49;;;;;;;11.77;7.70;;;;;;;;;;4968948;28;20277;-64
2023/09/03 05:18:15;;;;;;;9.48;6.90;;;;;;;;;;4992406;28;20812;-63
2023/09/03 05:20:40;;;;;;;11.37;7.07;;;;;;;;;;5014472;28;20022;-64
2023/09/03 05:23:05;;;;;;;11.30;7.90;;;;;;;;;;4985379;28;21865;-64
2023/09/03 05:25:30;;;;;;;9.98;7.80;;;;;;;;;;5004178;28;20443;-63
2023/09/03 05:27:56;;;;;;;11.88;7.68;;;;;;;;;;4988973;28;20041;-66
2023/09/03 05:30:22;;;;;;;10.40;7.40;;;;;;;;;;4998170;28;20053;-66
2023/09/03 05:32:47;;;;;;;9.98;7.90;;;;;;;;;;4985625;28;20326;-64
2023/09/03 05:35:13;;;;;;;8.57;7.43;;;;;;;;;;4983558;28;20041;-65
2023/09/03 05:37:38;;;;;;;11.10;7.78;;;;;;;;;;5000517;28;20272;-67
2023/09/03 05:40:04;;;;;;;11.73;7.88;;;;;;;;;;5002655;28;20124;-64
2023/09/03 05:42:29;;;;;;;11.75;8.55;;;;;;;;;;4984082;28;20037;-62
2023/09/03 05:44:56;;;;;;;11.82;8.98;;;;;;;;;;5002925;28;20038;-62
2023/09/03 05:47:21;;;;;;;10.13;8.32;;;;;;;;;;5006579;28;20034;-63
2023/09/03 05:49:48;;;;;;;11.05;8.93;;;;;;;;;;5005537;28;20042;-62
2023/09/03 05:52:13;;;;;;;11.73;8.67;;;;;;;;;;5021490;28;20073;-62
2023/09/03 05:54:38;;;;;;;11.40;8.10;;;;;;;;;;5004905;28;20291;-63
2023/09/03 05:57:03;;;;;;;10.35;8.55;;;;;;;;;;5004362;28;20316;-63
2023/09/03 05:59:29;;;;;;;11.02;8.80;;;;;;;;;;4987774;28;20064;-63
2023/09/03 06:01:54;;;;;;;11.53;8.27;;;;;;;;;;5006399;28;20038;-65
2023/09/03 06:04:19;;;;;;;10.17;8.23;;;;;;;;;;5007066;28;20288;-62
2023/09/03 06:06:45;;;;;;;11.93;8.10;;;;;;;;;;4972707;28;20809;-62
2023/09/03 06:09:10;;;;;;;9.97;8.20;;;;;;;;;;5005236;28;20048;-62
2023/09/03 06:11:35;;;;;;;11.83;8.20;;;;;;;;;;4989214;28;20869;-64
2023/09/03 06:14:01;;;;;;;11.05;8.10;;;;;;;;;;4969133;28;20636;-62
2023/09/03 06:16:26;;;;;;;9.10;7.38;;;;;;;;;;5003344;28;20054;-64
2023/09/03 06:18:51;;;;;;;11.50;7.80;;;;;;;;;;4988533;28;20109;-63
2023/09/03 06:21:17;;;;;;;10.13;8.00;;;;;;;;;;4989425;28;20172;-62
2023/09/03 06:23:42;;;;;;;12.15;8.30;;;;;;;;;;4973160;28;20061;-63
2023/09/03 06:26:07;;;;;;;11.47;7.67;;;;;;;;;;4987298;28;20179;-61
2023/09/03 06:28:33;;;;;;;11.80;7.30;;;;;;;;;;4990575;28;20108;-64
2023/09/03 06:30:59;;;;;;;12.18;7.35;;;;;;;;;;4996903;28;20336;-63
2023/09/03 06:33:24;;;;;;;10.68;7.22;;;;;;;;;;4975421;28;20424;-61
2023/09/03 06:35:49;;;;;;;12.90;7.83;;;;;;;;;;4994359;28;20040;-63
2023/09/03 06:38:14;;;;;;;9.73;7.03;;;;;;;;;;4976718;28;20351;-63
2023/09/03 06:40:40;;;;;;;10.23;7.47;;;;;;;;;;4978291;28;20281;-61
2023/09/03 06:43:05;;;;;;;9.43;7.70;;;;;;;;;;4997824;28;20038;-62
2023/09/03 06:45:31;;;;;;;9.10;7.05;;;;;;;;;;4975366;28;20817;-63
2023/09/03 06:47:57;;;;;;;8.23;6.63;;;;;;;;;;4976838;28;20463;-61
2023/09/03 06:50:22;;;;;;;9.88;7.30;;;;;;;;;;4985438;28;20050;-62
2023/09/03 06:52:47;;;;;;;9.32;6.97;;;;;;;;;;4992103;28;20030;-62
2023/09/03 06:55:12;;;;;;;11.37;7.83;;;;;;;;;;4978343;28;20113;-63
2023/09/03 06:57:37;;;;;;;9.70;7.17;;;;;;;;;;4997354;28;20034;-62
2023/09/03 07:00:06;;;;;;;10.53;7.50;;;;;;;;;;4979182;28;20097;-62
2023/09/03 07:02:31;;;;;;;11.07;7.05;;;;;;;;;;4990908;28;20046;-66
2023/09/03 07:04:59;;;;;;;12.87;7.83;;;;;;;;;;4975191;28;20544;-65
2023/09/03 07:07:24;;;;;;;8.70;7.30;;;;;;;;;;4971996;28;20289;-61
2023/09/03 07:09:50;;;;;;;10.87;7.50;;;;;;;;;;4993763;28;20054;-59
2023/09/03 07:12:15;;;;;;;8.70;6.97;;;;;;;;;;4971138;28;20447;-62
2023/09/03 07:14:40;;;;;;;10.33;7.70;;;;;;;;;;4994130;28;20368;-59
2023/09/03 07:17:05;;;;;;;8.77;6.90;;;;;;;;;;4993923;28;20896;-65
2023/09/03 07:19:31;;;;;;;9.57;7.10;;;;;;;;;;4976589;28;20031;-62
2023/09/03 07:21:57;;;;;;;9.03;7.07;;;;;;;;;;4975265;28;20034;-62
2023/09/03 07:24:22;;;;;;;8.07;6.88;;;;;;;;;;4993959;28;20414;-66
2023/09/03 07:26:47;;;;;;;9.13;7.20;;;;;;;;;;4984668;28;20026;-65
2023/09/03 07:29:13;;;;;;;8.20;6.75;;;;;;;;;;4997526;28;20046;-62
2023/09/03 07:31:40;;;;;;;9.77;7.28;;;;;;;;;;5010384;28;20556;-64
2023/09/03 07:34:15;;;;;;;11.13;7.10;;;;;;;;;;4995733;28;20084;-62
2023/09/03 07:36:40;;;;;;;8.70;6.55;;;;;;;;;;4973857;28;20137;-62
2023/09/03 07:39:06;;;;;;;9.53;6.70;;;;;;;;;;4982360;28;20827;-62
2023/09/03 07:41:31;;;;;;;9.27;6.80;;;;;;;;;;4971259;28;20300;-65
2023/09/03 07:43:57;;;;;;;11.85;6.55;;;;;;;;;;4983476;28;20041;-62
2023/09/03 07:46:22;;;;;;;8.05;6.25;;;;;;;;;;4975637;28;20421;-63
2023/09/03 07:48:47;;;;;;;8.17;6.17;;;;;;;;;;4979293;28;20536;-66
2023/09/03 07:51:15;;;;;;;7.63;6.33;;;;;;;;;;4973597;28;20683;-61
2023/09/03 07:53:40;;;;;;;9.27;6.95;;;;;;;;;;4981221;28;20069;-65
2023/09/03 07:56:05;;;;;;;8.35;6.18;;;;;;;;;;4994152;28;20038;-61
2023/09/03 07:58:31;;;;;;;9.67;6.43;;;;;;;;;;4995998;28;20507;-65
2023/09/03 08:00:56;;;;;;;9.17;6.90;;;;;;;;;;4974945;28;20582;-66
2023/09/03 08:03:21;;;;;;;9.67;6.30;;;;;;;;;;5008270;28;20296;-64
2023/09/03 08:05:46;;;;;;;9.53;6.20;;;;;;;;;;4981838;28;20386;-65
2023/09/03 08:08:12;;;;;;;7.57;6.18;;;;;;;;;;4975262;28;20037;-62
2023/09/03 08:10:37;;;;;;;9.43;6.13;;;;;;;;;;4992841;28;20081;-64
2023/09/03 08:13:02;;;;;;;7.63;5.97;;;;;;;;;;5006994;28;20037;-62
2023/09/03 08:15:27;;;;;;;8.82;5.78;;;;;;;;;;4993659;28;20290;-62
2023/09/03 08:17:53;;;;;;;9.87;5.63;;;;;;;;;;4978505;28;20095;-61
2023/09/03 08:20:19;;;;;;;9.57;5.73;;;;;;;;;;4994688;28;20064;-61
2023/09/03 08:22:45;;;;;;;8.30;6.13;;;;;;;;;;4975804;28;20304;-62
2023/09/03 08:25:10;;;;;;;7.40;6.07;;;;;;;;;;4991351;28;20030;-62
2023/09/03 08:27:35;;;;;;;9.10;6.17;;;;;;;;;;4981344;28;20297;-62
2023/09/03 08:30:00;;;;;;;11.70;5.70;;;;;;;;;;4991926;28;20834;-62
2023/09/03 08:32:28;;;;;;;9.40;6.27;;;;;;;;;;4972095;28;20074;-63
2023/09/03 08:34:53;;;;;;;7.78;5.85;;;;;;;;;;5008327;28;20296;-64
2023/09/03 08:37:18;;;;;;;8.00;5.67;;;;;;;;;;4974764;28;20250;-64
2023/09/03 08:39:44;;;;;;;7.63;5.43;;;;;;;;;;4989798;28;20301;-63
2023/09/03 08:42:09;;;;;;;7.10;5.07;;;;;;;;;;4990613;28;20100;-64
2023/09/03 08:45:00;;;;;;;7.03;5.17;;;;;;;;;;4971226;28;20046;-62
2023/09/03 08:47:26;;;;;;;8.27;5.50;;;;;;;;;;4986631;28;20742;-63
2023/09/03 08:49:51;;;;;;;7.07;5.72;;;;;;;;;;4967252;28;20417;-62
2023/09/03 08:52:17;;;;;;;7.22;5.43;;;;;;;;;;4971446;28;20231;-62
2023/09/03 08:54:42;;;;;;;7.78;5.20;;;;;;;;;;4968983;28;20037;-61
2023/09/03 08:57:09;;;;;;;8.63;5.65;;;;;;;;;;4976014;28;20075;-63
2023/09/03 08:59:34;;;;;;;6.47;5.32;;;;;;;;;;4976675;28;20123;-62
2023/09/03 09:01:59;;;;;;;6.65;5.28;;;;;;;;;;4991313;28;20149;-62
2023/09/03 09:04:28;;;;;;;6.65;5.07;;;;;;;;;;4970795;28;20522;-61
2023/09/03 09:06:54;;;;;;;6.93;4.90;;;;;;;;;;4977516;28;20039;-63
2023/09/03 09:09:19;;;;;;;6.13;4.90;;;;;;;;;;4975469;28;20507;-63
2023/09/03 09:11:49;;;;;;;6.37;4.73;;;;;;;;;;4987897;28;20478;-64
2023/09/03 09:14:17;;;;;;;5.28;4.45;;;;;;;;;;4988633;28;20296;-62
2023/09/03 09:16:43;;;;;;;6.30;5.25;;;;;;;;;;4990419;28;20048;-62
2023/09/03 09:19:08;;;;;;;6.43;4.53;;;;;;;;;;4989657;28;20062;-63
2023/09/03 09:21:33;;;;;;;6.77;4.80;;;;;;;;;;4962543;28;20066;-64
2023/09/03 09:24:02;;;;;;;6.55;4.75;;;;;;;;;;4954104;28;20184;-60
2023/09/03 09:26:31;;;;;;;6.10;4.70;;;;;;;;;;4973680;28;20585;-63
2023/09/03 09:28:57;;;;;;;6.65;4.60;;;;;;;;;;4966811;28;20042;-64
2023/09/03 09:31:29;;;;;;;8.02;4.82;;;;;;;;;;4984660;28;20050;-63
2023/09/03 09:33:54;;;;;;;5.60;4.40;;;;;;;;;;4968472;28;20420;-62
2023/09/03 09:36:20;;;;;;;7.57;4.82;;;;;;;;;;4969582;28;20043;-64
2023/09/03 09:38:45;;;;;;;6.20;4.45;;;;;;;;;;5005569;28;20026;-64
2023/09/03 09:41:23;;;;;;;6.80;4.40;;;;;;;;;;4989702;28;20045;-62
2023/09/03 09:43:49;;;;;;;6.80;4.78;;;;;;;;;;4968188;28;20053;-64
2023/09/03 09:46:26;;;;;;;7.63;4.43;;;;;;;;;;4970770;28;20026;-62
2023/09/03 09:48:58;;;;;;;6.22;4.63;;;;;;;;;;4988454;28;20531;-61
2023/09/03 09:51:23;;;;;;;5.93;4.00;;;;;;;;;;4968995;28;20038;-61
2023/09/03 09:53:58;;;;;;;5.60;4.25;;;;;;;;;;4984100;28;20022;-64
2023/09/03 09:56:30;;;;;;;5.63;4.53;;;;;;;;;;5005090;28;20042;-63
2023/09/03 09:58:57;;;;;;;5.35;4.28;;;;;;;;;;4975248;28;20473;-62
2023/09/03 10:01:23;;;;;;;5.85;4.20;;;;;;;;;;4969178;28;20066;-62
2023/09/03 10:03:48;;;;;;;5.65;4.18;;;;;;;;;;4975036;28;20122;-63
2023/09/03 10:06:14;;;;;;;5.60;4.07;;;;;;;;;;4975659;28;20121;-62
2023/09/03 10:08:39;;;;;;;6.28;4.47;;;;;;;;;;4987053;28;20033;-61
2023/09/03 10:11:04;;;;;;;5.87;4.40;;;;;;;;;;4969487;28;20135;-62
2023/09/03 10:13:31;;;;;;;6.75;4.43;;;;;;;;;;4987224;28;20285;-63
2023/09/03 10:15:56;;;;;;;6.47;4.35;;;;;;;;;;4969186;28;20042;-65
2023/09/03 10:18:21;;;;;;;5.30;4.27;;;;;;;;;;5007475;28;20041;-65
2023/09/03 10:20:46;;;;;;;6.07;4.30;;;;;;;;;;4977235;28;20049;-65
2023/09/03 10:23:12;;;;;;;5.87;4.07;;;;;;;;;;4975985;28;20053;-65
2023/09/03 10:25:37;;;;;;;5.55;4.25;;;;;;;;;;4994908;28;20132;-62
2023/09/03 10:28:06;;;;;;;6.80;4.53;;;;;;;;;;4973021;28;20373;-61
2023/09/03 10:30:32;;;;;;;8.23;4.18;;;;;;;;;;4994181;28;20331;-65
2023/09/03 10:32:58;;;;;;;6.32;4.53;;;;;;;;;;4984368;28;20039;-61
2023/09/03 10:35:23;;;;;;;6.00;4.18;;;;;;;;;;4985787;28;20432;-61
2023/09/03 10:37:50;;;;;;;5.00;4.40;;;;;;;;;;4976341;28;20510;-63
2023/09/03 10:40:26;;;;;;;5.45;4.32;;;;;;;;;;4995518;28;20289;-61
2023/09/03 10:42:52;;;;;;;5.80;4.20;;;;;;;;;;4995123;28;20046;-64
2023/09/03 10:45:18;;;;;;;5.15;4.00;;;;;;;;;;4978629;28;20612;-60
2023/09/03 10:48:00;;;;;;;6.25;4.40;;;;;;;;;;4970904;28;20036;-61
2023/09/03 10:50:45;;;;;;;6.50;3.90;;;;;;;;;;4994786;28;20061;-61
2023/09/03 10:53:29;;;;;;;5.10;4.18;;;;;;;;;;4995669;28;20057;-63
2023/09/03 10:56:10;;;;;;;6.70;4.18;;;;;;;;;;4995916;28;20046;-62
2023/09/03 10:58:51;;;;;;;5.50;4.03;;;;;;;;;;4960379;28;20060;-60
2023/09/03 11:01:34;;;;;;;5.15;3.60;;;;;;;;;;4962400;28;20399;-62
2023/09/03 11:04:03;;;;;;;5.15;3.95;;;;;;;;;;4983787;28;20499;-60
2023/09/03 11:06:31;;;;;;;6.70;4.17;;;;;;;;;;4977149;28;20037;-61
2023/09/03 11:08:59;;;;;;;4.78;3.97;;;;;;;;;;4999754;28;20034;-61
2023/09/03 11:11:25;;;;;;;5.45;4.05;;;;;;;;;;4979122;28;20108;-60
2023/09/03 11:13:51;;;;;;;4.78;3.92;;;;;;;;;;4973311;28;20046;-61
2023/09/03 11:16:16;;;;;;;4.18;3.65;;;;;;;;;;4960721;28;20038;-60
2023/09/03 11:18:48;;;;;;;4.78;3.60;;;;;;;;;;4977039;28;20100;-63
2023/09/03 11:21:13;;;;;;;6.20;3.90;;;;;;;;;;4962538;28;20520;-61
2023/09/03 11:23:39;;;;;;;5.43;4.28;;;;;;;;;;4990853;28;20049;-63
2023/09/03 11:26:05;;;;;;;5.00;3.57;;;;;;;;;;4971434;28;20031;-62
2023/09/03 11:28:34;;;;;;;4.57;3.80;;;;;;;;;;4967735;28;20054;-64
2023/09/03 11:31:01;;;;;;;4.15;3.50;;;;;;;;;;4994635;28;20052;-62
2023/09/03 11:33:26;;;;;;;6.20;3.90;;;;;;;;;;4993276;28;20045;-64
2023/09/03 11:35:53;;;;;;;5.93;4.20;;;;;;;;;;4975808;28;20038;-63
2023/09/03 11:38:19;;;;;;;4.72;3.80;;;;;;;;;;4981475;28;20786;-62
2023/09/03 11:40:44;;;;;;;4.15;3.47;;;;;;;;;;4994658;28;20097;-61
2023/09/03 11:43:09;;;;;;;5.30;3.93;;;;;;;;;;4981355;28;20044;-61
2023/09/03 11:45:34;;;;;;;5.40;3.92;;;;;;;;;;4981706;28;20092;-62
2023/09/03 11:48:00;;;;;;;5.68;3.72;;;;;;;;;;4974285;28;20026;-63
2023/09/03 11:50:25;;;;;;;4.38;3.53;;;;;;;;;;4996646;28;20053;-61
2023/09/03 11:52:54;;;;;;;4.93;3.70;;;;;;;;;;4997730;28;20465;-62
2023/09/03 11:55:20;;;;;;;5.97;3.88;;;;;;;;;;4997844;28;20049;-60
2023/09/03 11:57:46;;;;;;;4.63;3.42;;;;;;;;;;4995179;28;20408;-63
2023/09/03 12:00:11;;;;;;;4.78;3.47;;;;;;;;;;4990253;28;20038;-63
2023/09/03 12:02:37;;;;;;;5.40;3.60;;;;;;;;;;4992194;28;20100;-64
2023/09/03 12:05:02;;;;;;;4.72;3.75;;;;;;;;;;4982274;28;20030;-61
2023/09/03 12:07:27;;;;;;;4.13;3.33;;;;;;;;;;4995161;28;20062;-64
2023/09/03 12:09:53;;;;;;;6.30;4.00;;;;;;;;;;4997440;28;20170;-61
2023/09/03 12:12:21;;;;;;;5.67;3.80;;;;;;;;;;4992321;28;20745;-62
2023/09/03 12:14:46;;;;;;;5.03;3.80;;;;;;;;;;4991725;28;20376;-62
2023/09/03 12:17:21;;;;;;;6.50;3.83;;;;;;;;;;4975205;28;20120;-64
2023/09/03 12:19:46;;;;;;;5.15;3.83;;;;;;;;;;4994760;28;20297;-62
2023/09/03 12:22:13;;;;;;;4.33;3.27;;;;;;;;;;4987148;28;20514;-64
2023/09/03 12:24:38;;;;;;;4.95;3.72;;;;;;;;;;4972620;28;20044;-62
2023/09/03 12:27:04;;;;;;;5.93;3.40;;;;;;;;;;4990702;28;20030;-61
2023/09/03 12:29:36;;;;;;;4.45;3.40;;;;;;;;;;4987078;28;20129;-62
2023/09/03 12:32:02;;;;;;;6.38;3.72;;;;;;;;;;4978900;28;20038;-63
2023/09/03 12:34:49;;;;;;;7.05;3.85;;;;;;;;;;4990673;28;20040;-62
2023/09/03 12:37:14;;;;;;;5.43;3.58;;;;;;;;;;4989425;28;20038;-61
2023/09/03 12:39:42;;;;;;;6.47;3.90;;;;;;;;;;4991832;28;20073;-61
2023/09/03 12:42:08;;;;;;;6.22;3.63;;;;;;;;;;4969315;28;20724;-61
2023/09/03 12:44:33;;;;;;;6.78;3.90;;;;;;;;;;4990362;28;20030;-61
2023/09/03 12:46:59;;;;;;;4.47;3.15;;;;;;;;;;5016695;28;20041;-63
2023/09/03 12:49:26;;;;;;;4.88;3.75;;;;;;;;;;5002571;28;20033;-63
2023/09/03 12:51:51;;;;;;;3.85;3.22;;;;;;;;;;4986936;28;20034;-63
2023/09/03 12:54:16;;;;;;;4.50;3.43;;;;;;;;;;5003265;28;20037;-61
2023/09/03 12:56:41;;;;;;;5.07;3.40;;;;;;;;;;4983919;28;20347;-63
2023/09/03 12:59:06;;;;;;;4.47;3.37;;;;;;;;;;4986285;28;20219;-63
2023/09/03 13:01:32;;;;;;;4.85;3.22;;;;;;;;;;4986652;28;20674;-63
2023/09/03 13:03:58;;;;;;;3.88;3.10;;;;;;;;;;4986091;28;20428;-62
2023/09/03 13:06:23;;;;;;;5.00;3.35;;;;;;;;;;5004020;28;20038;-60
2023/09/03 13:08:49;;;;;;;4.65;3.58;;;;;;;;;;5002976;28;20041;-61
2023/09/03 13:11:14;;;;;;;4.90;3.50;;;;;;;;;;4985423;28;20045;-61
2023/09/03 13:13:39;;;;;;;4.83;3.53;;;;;;;;;;4985863;28;20052;-62
2023/09/03 13:16:04;;;;;;;4.97;3.55;;;;;;;;;;5004201;28;20281;-64
2023/09/03 13:18:30;;;;;;;5.10;3.83;;;;;;;;;;5018235;28;20030;-62
2023/09/03 13:20:56;;;;;;;4.80;3.70;;;;;;;;;;5002559;28;20284;-62
2023/09/03 13:23:21;;;;;;;4.60;3.42;;;;;;;;;;4984969;28;20044;-61
2023/09/03 13:25:46;;;;;;;4.17;3.27;;;;;;;;;;5018772;28;20052;-63
2023/09/03 13:28:12;;;;;;;4.07;3.20;;;;;;;;;;5004308;28;20354;-65
2023/09/03 13:30:37;;;;;;;4.43;3.30;;;;;;;;;;4975468;28;20104;-65
2023/09/03 13:33:03;;;;;;;4.18;3.50;;;;;;;;;;4977888;28;20129;-62
2023/09/03 13:35:29;;;;;;;4.53;3.42;;;;;;;;;;4975099;28;20483;-62
2023/09/03 13:37:54;;;;;;;4.90;3.35;;;;;;;;;;4991793;28;20045;-62
2023/09/03 13:40:19;;;;;;;4.40;3.37;;;;;;;;;;4994044;28;20041;-61
2023/09/03 13:42:44;;;;;;;4.50;3.17;;;;;;;;;;4981692;28;20759;-65
2023/09/03 13:45:10;;;;;;;3.93;3.37;;;;;;;;;;5000743;28;20466;-62
2023/09/03 13:47:35;;;;;;;3.72;3.05;;;;;;;;;;5002647;28;20458;-63
2023/09/03 13:50:00;;;;;;;5.53;3.33;;;;;;;;;;5017801;28;20496;-63
2023/09/03 13:52:27;;;;;;;5.78;3.15;;;;;;;;;;5002743;28;20924;-64
2023/09/03 13:54:52;;;;;;;4.82;3.15;;;;;;;;;;5002061;28;20512;-63
2023/09/03 13:57:17;;;;;;;4.47;3.47;;;;;;;;;;5002765;28;20129;-62
2023/09/03 13:59:44;;;;;;;5.50;3.67;;;;;;;;;;5002989;28;20057;-62
2023/09/03 14:02:09;;;;;;;6.90;3.92;;;;;;;;;;5003943;28;20281;-61
2023/09/03 14:04:34;;;;;;;5.97;3.47;;;;;;;;;;4968991;28;20052;-64
2023/09/03 14:07:00;;;;;;;5.00;3.60;;;;;;;;;;5006977;28;20273;-59
2023/09/03 14:09:25;;;;;;;4.87;3.63;;;;;;;;;;5007579;28;20041;-61
2023/09/03 14:11:51;;;;;;;6.18;3.45;;;;;;;;;;5005381;28;20746;-60
2023/09/03 14:14:16;;;;;;;5.32;3.40;;;;;;;;;;4989607;28;20103;-63
2023/09/03 14:16:42;;;;;;;5.63;3.40;;;;;;;;;;4990247;28;20501;-62
2023/09/03 14:19:07;;;;;;;8.20;4.30;;;;;;;;;;5005232;28;20071;-63
2023/09/03 14:21:32;;;;;;;6.80;3.72;;;;;;;;;;5006978;28;20729;-65
2023/09/03 14:23:57;;;;;;;5.37;3.33;;;;;;;;;;4984234;28;20029;-61
2023/09/03 14:26:23;;;;;;;7.33;3.40;;;;;;;;;;5018597;28;20303;-62
2023/09/03 14:28:50;;;;;;;7.65;3.78;;;;;;;;;;5020116;28;20037;-61
2023/09/03 14:31:15;;;;;;;6.40;3.50;;;;;;;;;;5007369;28;20113;-63
2023/09/03 14:33:41;;;;;;;6.70;3.78;;;;;;;;;;4956675;28;20606;-61
2023/09/03 14:36:06;;;;;;;4.57;3.42;;;;;;;;;;4975661;28;20396;-61
2023/09/03 14:38:31;;;;;;;6.80;3.50;;;;;;;;;;4972281;28;20528;-64
2023/09/03 14:40:56;;;;;;;4.73;3.60;;;;;;;;;;4974342;28;20332;-63
2023/09/03 14:43:22;;;;;;;7.77;3.70;;;;;;;;;;4972501;28;20076;-61